Time;durP1;ratioP1;P1;durP2;ratioP2;P2;SDS_P1;SDS_P2;PMS_P1;PMS_P2;Temp;Humidity;BMP_temperature;BMP_pressure;BME280_temperature;BME280_humidity;BME280_pressure;Samples;Min_cycle;Max_cycle;Signal;HPM_P1;HPM_P2
2021/03/08 00:01:55;;;;;;;83.35;36.92;;;;;;;0.05;80.79;97517.03;5119306;27;20091;-92
2021/03/08 00:04:21;;;;;;;87.07;38.17;;;;;;;0.01;80.74;97515.34;5119825;27;20037;-94
2021/03/08 00:06:46;;;;;;;74.68;33.33;;;;;;;-0.02;81.39;97516.28;5120994;27;20030;-93
2021/03/08 00:09:18;;;;;;;67.75;30.23;;;;;;;-0.09;80.68;97511.19;5119691;27;20023;-94
2021/03/08 00:11:43;;;;;;;75.30;31.20;;;;;;;-0.05;80.98;97512.84;5119476;27;20031;-94
2021/03/08 00:14:09;;;;;;;77.57;31.05;;;;;;;-0.15;82.25;97498.16;5136653;27;20029;-94
2021/03/08 00:16:40;;;;;;;69.88;29.05;;;;;;;-0.28;81.61;97494.94;5141208;27;20027;-95
2021/03/08 00:19:06;;;;;;;71.07;30.23;;;;;;;-0.26;81.70;97485.25;5125292;27;20020;-95
2021/03/08 00:21:32;;;;;;;71.15;30.00;;;;;;;-0.33;82.76;97501.16;5120598;27;20114;-95
2021/03/08 00:23:58;;;;;;;56.35;24.85;;;;;;;-0.31;82.37;97494.16;5124339;27;20035;-94
2021/03/08 00:26:24;;;;;;;49.42;23.08;;;;;;;-0.30;83.12;97506.38;5098911;28;20015;-94
2021/03/08 00:28:49;;;;;;;57.38;25.52;;;;;;;-0.27;83.21;97503.66;5099013;28;20020;-93
2021/03/08 00:31:15;;;;;;;56.05;23.10;;;;;;;-0.30;82.98;97490.59;5098409;28;20122;-92
2021/03/08 00:33:40;;;;;;;55.17;24.33;;;;;;;-0.35;83.71;97490.72;5114976;27;20044;-93
2021/03/08 00:36:06;;;;;;;59.20;23.10;;;;;;;-0.42;83.60;97494.34;5119396;27;20034;-94
2021/03/08 00:38:32;;;;;;;59.55;23.60;;;;;;;-0.24;84.97;97491.34;5119884;27;20034;-94
2021/03/08 00:40:57;;;;;;;56.70;25.70;;;;;;;-0.29;84.29;97485.31;5119251;27;20023;-95
2021/03/08 00:43:23;;;;;;;53.17;23.08;;;;;;;-0.40;83.93;97487.28;5136730;27;20093;-94
2021/03/08 00:45:48;;;;;;;53.90;22.75;;;;;;;-0.48;84.03;97483.09;5119145;27;20031;-94
2021/03/08 00:48:14;;;;;;;46.40;23.48;;;;;;;-0.49;85.35;97482.22;5118884;27;20051;-94
2021/03/08 00:50:40;;;;;;;48.17;21.40;;;;;;;-0.39;84.63;97481.16;5136195;27;20016;-93
2021/03/08 00:53:05;;;;;;;48.00;21.20;;;;;;;-0.40;85.93;97479.41;5119250;27;20023;-95
2021/03/08 00:55:31;;;;;;;49.33;22.48;;;;;;;-0.28;85.08;97480.94;5119987;28;20479;-94
2021/03/08 00:57:57;;;;;;;51.38;22.80;;;;;;;-0.32;83.98;97474.00;5117679;28;20030;-94
2021/03/08 01:00:25;;;;;;;50.72;22.10;;;;;;;-0.24;84.87;97479.97;5118127;27;20031;-95
2021/03/08 01:02:52;;;;;;;51.72;22.20;;;;;;;-0.33;84.73;97467.00;5117880;27;20061;-93
2021/03/08 01:05:18;;;;;;;62.60;25.20;;;;;;;-0.31;84.14;97460.84;5135783;27;20030;-93
2021/03/08 01:07:44;;;;;;;55.47;24.40;;;;;;;-0.33;84.37;97462.63;5124631;27;20034;-94
2021/03/08 01:10:12;;;;;;;79.55;33.03;;;;;;;-0.32;84.16;97458.25;5119217;28;20023;-94
2021/03/08 01:12:38;;;;;;;77.90;33.50;;;;;;;-0.30;84.61;97457.31;5140365;27;20064;-95
2021/03/08 01:15:07;;;;;;;65.82;28.38;;;;;;;-0.21;83.65;97456.25;5124466;28;20052;-94
2021/03/08 01:17:33;;;;;;;59.92;27.80;;;;;;;-0.32;83.97;97443.34;5137855;28;20019;-92
2021/03/08 01:19:58;;;;;;;53.95;22.95;;;;;;;-0.31;84.16;97450.34;5122440;27;20020;-93
2021/03/08 01:22:24;;;;;;;62.05;24.13;;;;;;;-0.57;83.93;97453.50;5123029;27;20074;-93
2021/03/08 01:25:08;;;;;;;48.20;20.02;;;;;;;-0.59;85.29;97439.53;5122537;27;20027;-93
2021/03/08 01:27:34;;;;;;;41.40;18.05;;;;;;;-0.69;85.27;97432.72;5139273;27;20062;-93
2021/03/08 01:30:05;;;;;;;45.90;19.52;;;;;;;-0.67;85.93;97428.31;5125517;27;20019;-94
2021/03/08 01:32:30;;;;;;;50.80;23.20;;;;;;;-0.58;85.27;97436.00;5123039;27;20030;-93
2021/03/08 01:34:56;;;;;;;46.28;21.42;;;;;;;-0.64;85.46;97419.50;5114964;28;20409;-92
2021/03/08 01:37:21;;;;;;;45.13;19.45;;;;;;;-0.51;85.84;97428.00;5111789;27;20035;-91
2021/03/08 01:39:47;;;;;;;48.53;19.52;;;;;;;-0.69;85.62;97406.47;5115813;28;20035;-92
2021/03/08 01:42:12;;;;;;;45.30;19.92;;;;;;;-0.58;85.63;97420.25;5117918;27;20042;-92
2021/03/08 01:44:41;;;;;;;49.90;20.33;;;;;;;-0.49;85.25;97428.84;5113586;27;20057;-93
2021/03/08 01:47:10;;;;;;;45.33;19.77;;;;;;;-0.50;85.77;97416.59;5121680;27;20053;-92
2021/03/08 01:49:35;;;;;;;42.00;19.02;;;;;;;-0.44;85.85;97421.72;5108430;28;20019;-92
2021/03/08 01:52:01;;;;;;;45.30;19.65;;;;;;;-0.55;86.31;97404.41;5100492;28;20110;-93
2021/03/08 01:54:26;;;;;;;38.13;17.85;;;;;;;-0.58;85.50;97427.25;5101158;28;20064;-94
2021/03/08 01:56:52;;;;;;;38.58;18.13;;;;;;;-0.63;85.60;97422.09;5100865;28;20028;-93
2021/03/08 01:59:18;;;;;;;40.97;16.92;;;;;;;-0.69;85.76;97411.72;5118166;27;20034;-93
2021/03/08 02:01:44;;;;;;;41.50;17.90;;;;;;;-0.80;85.60;97392.69;5116951;28;20023;-93
2021/03/08 02:04:09;;;;;;;46.88;18.75;;;;;;;-0.60;87.02;97411.53;5117184;27;20479;-94
2021/03/08 02:06:35;;;;;;;37.90;17.15;;;;;;;-0.61;86.22;97404.53;5101482;28;20038;-92
2021/03/08 02:09:03;;;;;;;38.55;17.48;;;;;;;-0.58;85.94;97415.00;5107827;27;20049;-93
2021/03/08 02:11:29;;;;;;;53.50;22.80;;;;;;;-0.64;86.74;97396.72;5122451;27;20506;-93
2021/03/08 02:14:16;;;;;;;71.70;24.42;;;;;;;-0.64;86.84;97394.09;5123087;27;20061;-94
2021/03/08 02:17:07;;;;;;;76.00;29.02;;;;;;;-0.49;86.97;97410.47;5120598;27;20065;-93
2021/03/08 02:20:04;;;;;;;104.68;38.80;;;;;;;-0.49;86.55;97413.09;5119469;27;20509;-94
2021/03/08 02:23:09;;;;;;;94.28;33.35;;;;;;;-0.61;86.42;97415.03;5101260;28;20387;-94
2021/03/08 02:26:03;;;;;;;57.83;22.98;;;;;;;-0.61;86.67;97403.69;5102389;28;20023;-94
2021/03/08 02:28:34;;;;;;;54.50;22.00;;;;;;;-0.57;86.35;97415.84;5120366;27;20486;-93
2021/03/08 02:31:02;;;;;;;54.60;22.83;;;;;;;-0.68;86.38;97402.94;5140395;27;20023;-93
2021/03/08 02:33:34;;;;;;;48.53;21.38;;;;;;;-0.77;87.13;97392.63;5123004;27;20103;-94
2021/03/08 02:36:03;;;;;;;49.60;22.25;;;;;;;-0.91;87.32;97363.16;5116399;28;20050;-94
2021/03/08 02:38:30;;;;;;;52.50;22.42;;;;;;;-0.88;86.67;97377.97;5101519;27;20027;-93
2021/03/08 02:41:00;;;;;;;53.25;21.85;;;;;;;-0.77;87.22;97397.88;5120720;27;20034;-94
2021/03/08 02:43:39;;;;;;;55.10;23.70;;;;;;;-0.95;87.08;97361.47;5110765;28;20062;-93
2021/03/08 02:46:08;;;;;;;51.05;20.60;;;;;;;-0.80;87.66;97391.84;5100711;28;20027;-93
2021/03/08 02:48:35;;;;;;;49.10;21.38;;;;;;;-0.92;87.67;97356.19;5110511;27;20047;-94
2021/03/08 02:51:03;;;;;;;57.22;22.38;;;;;;;-0.89;87.21;97371.88;5114296;28;20119;-94
2021/03/08 02:53:30;;;;;;;62.40;24.08;;;;;;;-0.95;88.11;97371.97;5100629;28;20023;-94
2021/03/08 02:56:00;;;;;;;58.15;22.33;;;;;;;-0.87;88.15;97390.22;5101120;28;20024;-94
2021/03/08 02:58:26;;;;;;;48.22;18.92;;;;;;;-0.93;87.32;97379.84;5099820;28;20028;-92
2021/03/08 03:00:53;;;;;;;44.33;17.48;;;;;;;-0.92;86.95;97376.34;5100513;28;20028;-93
2021/03/08 03:03:20;;;;;;;47.17;20.38;;;;;;;-0.80;88.00;97387.44;5100130;28;20028;-93
2021/03/08 03:05:47;;;;;;;37.65;18.02;;;;;;;-0.94;88.68;97378.97;5100273;28;20411;-94
2021/03/08 03:08:13;;;;;;;39.08;17.00;;;;;;;-0.84;89.28;97384.91;5100298;28;20032;-94
2021/03/08 03:10:39;;;;;;;35.92;16.60;;;;;;;-0.77;89.22;97373.41;5099999;28;20031;-94
2021/03/08 03:13:05;;;;;;;42.08;17.92;;;;;;;-0.65;88.00;97387.16;5098516;28;20066;-94
2021/03/08 03:15:35;;;;;;;45.50;20.30;;;;;;;-0.77;87.21;97376.03;5099576;28;20082;-93
2021/03/08 03:18:01;;;;;;;42.10;19.85;;;;;;;-0.86;87.50;97379.69;5105166;27;20039;-94
2021/03/08 03:20:27;;;;;;;45.33;22.77;;;;;;;-0.95;87.81;97386.91;5119545;27;20391;-93
2021/03/08 03:22:54;;;;;;;45.80;19.83;;;;;;;-0.90;88.49;97401.66;5119245;27;20039;-93
2021/03/08 03:25:22;;;;;;;48.53;19.15;;;;;;;-0.88;88.73;97381.47;5118183;27;20031;-94
2021/03/08 03:27:49;;;;;;;55.60;22.30;;;;;;;-0.85;87.34;97386.66;5107602;28;20028;-93
2021/03/08 03:30:17;;;;;;;50.35;21.75;;;;;;;-1.01;87.80;97385.22;5131697;27;20034;-93
2021/03/08 03:32:44;;;;;;;46.42;20.30;;;;;;;-1.06;89.05;97387.09;5119732;27;20061;-93
2021/03/08 03:35:11;;;;;;;50.17;19.95;;;;;;;-1.17;88.86;97365.44;5119692;27;20031;-93
2021/03/08 03:37:37;;;;;;;46.45;20.45;;;;;;;-1.11;88.77;97367.94;5102422;28;20055;-93
2021/03/08 03:40:04;;;;;;;46.30;19.27;;;;;;;-1.23;89.82;97360.31;5112845;27;20027;-93
2021/03/08 03:42:29;;;;;;;43.83;19.45;;;;;;;-1.00;88.73;97368.59;5118379;27;20126;-92
2021/03/08 03:44:55;;;;;;;49.92;19.08;;;;;;;-1.03;89.27;97359.91;5116213;28;20070;-94
2021/03/08 03:47:21;;;;;;;46.88;19.67;;;;;;;-1.10;89.37;97357.41;5124318;27;20047;-94
2021/03/08 03:49:46;;;;;;;41.42;19.40;;;;;;;-0.99;90.54;97374.72;5119949;27;20556;-94
2021/03/08 03:52:12;;;;;;;41.03;18.70;;;;;;;-0.97;89.10;97363.28;5121404;27;20023;-94
2021/03/08 03:54:37;;;;;;;42.17;19.30;;;;;;;-0.96;90.49;97367.66;5121254;27;20027;-94
2021/03/08 03:57:06;;;;;;;59.03;20.17;;;;;;;-0.95;89.74;97366.72;5119994;27;20077;-94
2021/03/08 03:59:35;;;;;;;44.25;19.08;;;;;;;-0.90;89.20;97366.66;5119269;27;20506;-94
2021/03/08 04:02:06;;;;;;;45.17;17.85;;;;;;;-1.04;89.65;97356.41;5139193;27;20114;-93
2021/03/08 04:04:42;;;;;;;56.35;21.98;;;;;;;-1.06;90.07;97373.09;5119950;27;20035;-92
2021/03/08 04:07:08;;;;;;;47.88;20.02;;;;;;;-1.12;90.15;97359.22;5137286;27;20015;-95
2021/03/08 04:09:35;;;;;;;44.50;21.95;;;;;;;-1.23;89.57;97349.81;5120323;27;20023;-94
2021/03/08 04:12:01;;;;;;;56.13;23.30;;;;;;;-1.22;90.07;97341.03;5121731;27;20023;-94
2021/03/08 04:14:29;;;;;;;62.13;22.63;;;;;;;-1.25;91.17;97349.84;5138340;27;20019;-95
2021/03/08 04:16:58;;;;;;;91.25;32.22;;;;;;;-1.04;90.77;97366.91;5118494;27;20030;-94
2021/03/08 04:19:28;;;;;;;69.85;27.60;;;;;;;-1.12;90.95;97364.47;5112141;28;20023;-92
2021/03/08 04:21:58;;;;;;;64.85;22.98;;;;;;;-1.14;90.26;97358.34;5098519;28;20738;-94
2021/03/08 04:24:24;;;;;;;64.93;22.10;;;;;;;-1.21;91.27;97355.91;5105039;27;20091;-93
2021/03/08 04:26:50;;;;;;;63.58;20.02;;;;;;;-1.22;90.49;97356.78;5118304;27;20039;-93
2021/03/08 04:29:18;;;;;;;49.75;20.60;;;;;;;-1.42;90.78;97348.44;5103996;28;20026;-92
2021/03/08 04:31:44;;;;;;;59.22;22.38;;;;;;;-1.36;91.50;97349.19;5105295;27;20034;-94
2021/03/08 04:34:10;;;;;;;53.78;24.85;;;;;;;-1.24;91.19;97366.44;5097762;28;20035;-93
2021/03/08 04:36:36;;;;;;;75.47;31.48;;;;;;;-1.29;91.52;97352.56;5097226;28;20061;-92
2021/03/08 04:39:03;;;;;;;60.97;24.73;;;;;;;-1.44;91.20;97329.22;5114539;28;20350;-92
2021/03/08 04:41:30;;;;;;;74.40;26.67;;;;;;;-1.45;92.02;97338.88;5097870;28;20134;-93
2021/03/08 04:43:56;;;;;;;59.88;24.50;;;;;;;-1.34;92.18;97342.13;5097095;28;20487;-93
2021/03/08 04:46:23;;;;;;;85.78;35.20;;;;;;;-1.28;91.20;97351.66;5113289;27;20102;-92
2021/03/08 04:48:49;;;;;;;69.43;27.02;;;;;;;-1.28;90.92;97349.03;5109076;28;20047;-90
2021/03/08 04:51:15;;;;;;;70.05;25.40;;;;;;;-1.19;90.55;97356.72;5099063;28;20482;-92
2021/03/08 04:53:41;;;;;;;55.72;23.33;;;;;;;-1.19;90.96;97346.22;5097388;28;20055;-91
2021/03/08 04:56:07;;;;;;;44.55;21.15;;;;;;;-1.12;89.95;97348.72;5098306;28;20062;-92
2021/03/08 04:58:34;;;;;;;58.22;20.48;;;;;;;-1.06;90.23;97349.47;5098767;28;20042;-92
2021/03/08 05:01:09;;;;;;;99.07;38.92;;;;;;;-1.06;89.83;97341.59;5103271;28;20027;-94
2021/03/08 05:03:36;;;;;;;112.63;45.20;;;;;;;-0.98;89.09;97361.53;5100103;28;20120;-91
2021/03/08 05:06:02;;;;;;;127.43;51.95;;;;;;;-0.89;89.47;97365.78;5097062;28;20019;-92
2021/03/08 05:08:28;;;;;;;144.40;60.80;;;;;;;-0.96;88.80;97351.03;5097470;28;20019;-93
2021/03/08 05:10:55;;;;;;;81.05;37.22;;;;;;;-0.82;89.05;97368.22;5113401;28;20161;-90
2021/03/08 05:13:21;;;;;;;110.47;46.83;;;;;;;-0.71;89.07;97366.22;5111522;28;20023;-91
2021/03/08 05:15:53;;;;;;;83.32;34.90;;;;;;;-0.62;88.66;97334.56;5118367;28;20107;-90
2021/03/08 05:18:24;;;;;;;75.57;33.95;;;;;;;-0.48;87.40;97336.88;5103937;28;20415;-85
2021/03/08 05:20:51;;;;;;;72.53;34.08;;;;;;;-0.35;86.49;97332.22;5118381;28;20101;-91
2021/03/08 05:23:17;;;;;;;74.13;32.90;;;;;;;0.13;83.45;97332.81;5097596;28;20119;-91
2021/03/08 05:25:43;;;;;;;79.72;33.45;;;;;;;1.10;79.96;97370.59;5101058;28;20066;-91
2021/03/08 05:28:10;;;;;;;77.38;33.38;;;;;;;1.83;74.32;97361.41;5100851;28;20023;-89
2021/03/08 05:30:37;;;;;;;85.57;31.20;;;;;;;2.78;69.73;97367.97;5114628;28;20034;-91
2021/03/08 05:33:22;;;;;;;102.97;39.28;;;;;;;3.98;65.84;97368.84;5099250;28;20031;-91
2021/03/08 05:35:51;;;;;;;76.20;31.23;;;;;;;4.90;63.01;97376.53;5101121;28;20023;-90
2021/03/08 05:38:20;;;;;;;87.68;34.20;;;;;;;5.49;58.12;97383.66;5115786;28;20032;-92
2021/03/08 05:40:50;;;;;;;86.38;35.80;;;;;;;5.84;56.30;97375.00;5097038;28;20027;-90
2021/03/08 05:43:25;;;;;;;91.05;37.40;;;;;;;6.59;53.91;97385.59;5137778;28;20062;-91
2021/03/08 05:46:07;;;;;;;112.45;47.83;;;;;;;7.25;51.57;97389.34;5118038;28;20031;-91
2021/03/08 05:49:07;;;;;;;90.15;42.00;;;;;;;7.86;48.87;97391.44;5136073;28;20541;-91
2021/03/08 05:52:08;;;;;;;102.68;48.05;;;;;;;7.93;47.54;97390.16;5096379;28;20020;-91
2021/03/08 05:55:00;;;;;;;107.80;48.00;;;;;;;9.15;47.78;97399.22;5114428;28;20055;-91
2021/03/08 05:57:31;;;;;;;107.65;50.75;;;;;;;9.50;43.76;97386.44;5091810;28;20051;-91
2021/03/08 06:00:34;;;;;;;130.98;63.15;;;;;;;9.58;43.18;97380.63;5114228;28;20414;-90
2021/03/08 06:03:05;;;;;;;84.38;44.13;;;;;;;10.19;41.97;97381.25;5116905;28;20031;-88
2021/03/08 06:05:45;;;;;;;100.20;49.95;;;;;;;10.51;40.95;97376.53;5118380;28;20031;-91
2021/03/08 06:08:26;;;;;;;119.25;68.13;;;;;;;10.58;41.68;97390.38;5102589;28;20110;-90
2021/03/08 06:11:17;;;;;;;109.78;51.88;;;;;;;11.35;39.93;97383.38;5118358;28;20113;-91
2021/03/08 06:13:54;;;;;;;75.80;40.83;;;;;;;11.73;39.16;97390.66;5102143;28;20038;-90
2021/03/08 06:16:40;;;;;;;79.30;39.90;;;;;;;12.06;37.84;97372.19;5117732;28;20122;-89
2021/03/08 06:19:09;;;;;;;76.32;39.95;;;;;;;12.28;38.18;97376.91;5102473;28;20436;-90
2021/03/08 06:21:36;;;;;;;88.60;41.40;;;;;;;13.51;35.78;97371.28;5102859;28;20030;-90
2021/03/08 06:24:04;;;;;;;89.53;40.45;;;;;;;14.22;35.10;97367.50;5100794;28;20465;-91
2021/03/08 06:26:31;;;;;;;82.82;42.67;;;;;;;15.09;33.54;97375.63;5117696;28;20047;-90
2021/03/08 06:28:58;;;;;;;100.80;46.63;;;;;;;15.46;32.27;97376.13;5100404;28;20031;-90
2021/03/08 06:31:25;;;;;;;82.80;41.58;;;;;;;14.55;33.31;97368.38;5101389;28;20095;-91
2021/03/08 06:33:53;;;;;;;83.90;38.78;;;;;;;14.39;34.30;97378.69;5104245;28;20034;-90
2021/03/08 06:36:23;;;;;;;76.43;38.10;;;;;;;14.24;34.17;97396.03;5106738;28;20062;-91
2021/03/08 06:38:49;;;;;;;83.90;41.88;;;;;;;14.88;33.37;97391.75;5106021;28;20019;-90
2021/03/08 06:41:16;;;;;;;105.60;39.75;;;;;;;14.84;34.42;97394.78;5106486;28;20031;-91
2021/03/08 06:43:42;;;;;;;71.10;34.45;;;;;;;15.38;33.01;97401.00;5106291;28;20020;-91
2021/03/08 06:46:07;;;;;;;64.90;31.73;;;;;;;16.84;30.57;97377.53;5105665;28;20119;-90
2021/03/08 06:48:34;;;;;;;86.35;38.75;;;;;;;17.87;29.29;97379.66;5105356;28;20040;-91
2021/03/08 06:51:26;;;;;;;84.82;39.55;;;;;;;18.33;28.76;97378.84;5109614;28;20024;-90
2021/03/08 06:53:54;;;;;;;67.57;33.53;;;;;;;18.66;27.71;97361.22;5078534;28;20063;-90
2021/03/08 06:56:26;;;;;;;49.95;25.92;;;;;;;19.03;27.21;97353.03;5116498;27;20030;-90
2021/03/08 06:59:10;;;;;;;73.22;36.47;;;;;;;19.22;26.73;97377.31;5126320;27;20403;-90
2021/03/08 07:01:36;;;;;;;37.30;19.98;;;;;;;19.24;26.14;97367.16;5126299;27;20065;-88
2021/03/08 07:04:03;;;;;;;48.25;21.92;;;;;;;19.67;25.62;97353.72;5125887;27;20019;-91
2021/03/08 07:06:28;;;;;;;39.80;20.77;;;;;;;20.76;25.00;97358.59;5124151;27;20030;-92
2021/03/08 07:09:11;;;;;;;44.25;22.08;;;;;;;21.48;23.00;97354.44;5121513;27;20024;-89
2021/03/08 07:11:37;;;;;;;;;;;;;;;21.20;24.10;97372.03;5123023;27;20023;-91
2021/03/08 07:14:16;;;;;;;36.08;20.98;;;;;;;21.38;23.99;97364.63;5121213;27;20382;-88
2021/03/08 07:16:42;;;;;;;34.40;16.65;;;;;;;21.54;25.30;97367.38;5126444;27;20022;-89
2021/03/08 07:19:07;;;;;;;33.15;17.83;;;;;;;22.01;23.73;97357.56;5127453;27;20046;-90
2021/03/08 07:21:33;;;;;;;26.75;15.82;;;;;;;21.39;23.80;97356.28;5145780;27;20027;-88
2021/03/08 07:24:17;;;;;;;56.65;35.55;;;;;;;20.90;24.94;97349.81;5126546;27;20168;-91
2021/03/08 07:26:54;;;;;;;31.80;16.08;;;;;;;21.11;24.86;97352.13;5126921;27;20108;-95
2021/03/08 07:29:23;;;;;;;30.27;14.38;;;;;;;21.03;24.38;97352.06;5126758;27;20050;-88
2021/03/08 07:31:51;;;;;;;24.27;13.18;;;;;;;20.72;25.43;97350.91;5123084;27;20521;-90
2021/03/08 07:34:18;;;;;;;23.80;13.43;;;;;;;20.35;25.29;97343.06;5124696;27;20027;-89
2021/03/08 07:37:00;;;;;;;34.13;14.73;;;;;;;20.07;26.18;97353.22;5126849;27;20090;-89
2021/03/08 07:39:26;;;;;;;21.05;13.73;;;;;;;21.05;24.70;97358.19;5140242;27;20030;-90
2021/03/08 07:41:57;;;;;;;21.33;13.57;;;;;;;22.32;22.68;97337.78;5118793;27;20031;-91
2021/03/08 07:44:25;;;;;;;32.25;19.48;;;;;;;21.47;23.58;97339.13;5118415;27;20670;-91
2021/03/08 07:46:51;;;;;;;31.23;15.05;;;;;;;20.94;24.33;97345.75;5134863;27;20455;-88
2021/03/08 07:49:32;;;;;;;28.70;17.13;;;;;;;21.56;23.88;97329.97;5112936;28;20465;-91
2021/03/08 07:52:12;;;;;;;25.10;14.63;;;;;;;22.08;23.84;97333.22;5106034;28;20023;-92
2021/03/08 07:54:57;;;;;;;45.00;20.63;;;;;;;22.56;23.25;97341.31;5105814;28;20019;-91
2021/03/08 07:57:24;;;;;;;24.88;9.50;;;;;;;22.08;23.77;97325.06;5105206;28;20031;-91
2021/03/08 07:59:50;;;;;;;20.95;8.98;;;;;;;22.36;21.96;97318.19;5103732;28;20027;-87
2021/03/08 08:02:16;;;;;;;38.67;19.45;;;;;;;21.90;22.79;97311.59;5103279;28;20019;-86
2021/03/08 08:04:43;;;;;;;26.42;10.20;;;;;;;22.28;22.58;97322.78;5105113;28;20034;-90
2021/03/08 08:07:09;;;;;;;34.75;16.50;;;;;;;22.03;22.20;97314.66;5104902;28;20483;-88
2021/03/08 08:09:39;;;;;;;18.70;11.52;;;;;;;22.29;22.34;97313.59;5115939;27;20061;-90
2021/03/08 08:12:22;;;;;;;29.38;17.90;;;;;;;21.93;22.42;97311.25;5124883;27;20015;-90
2021/03/08 08:14:48;;;;;;;63.20;32.45;;;;;;;22.32;22.96;97315.97;5124165;27;20031;-89
2021/03/08 08:17:15;;;;;;;47.60;27.95;;;;;;;22.07;22.66;97316.03;5128134;27;20118;-87
2021/03/08 08:19:44;;;;;;;18.55;11.38;;;;;;;21.98;22.89;97314.31;5125565;27;20038;-89
2021/03/08 08:22:20;;;;;;;13.80;7.60;;;;;;;22.70;22.06;97315.22;5137164;27;20470;-90
2021/03/08 08:24:47;;;;;;;18.25;7.65;;;;;;;22.27;21.38;97308.31;5119772;27;20027;-89
2021/03/08 08:27:15;;;;;;;9.88;6.70;;;;;;;21.94;22.91;97315.69;5119742;27;20030;-89
2021/03/08 08:29:41;;;;;;;25.70;17.15;;;;;;;21.15;23.80;97314.56;5113155;28;20110;-89
2021/03/08 08:32:07;;;;;;;13.25;7.88;;;;;;;21.92;23.27;97317.75;5098699;28;20055;-89
2021/03/08 08:34:38;;;;;;;29.35;10.18;;;;;;;22.16;23.12;97297.78;5114881;28;20049;-89
2021/03/08 08:37:11;;;;;;;16.00;7.68;;;;;;;22.51;22.62;97315.59;5098848;28;20031;-91
2021/03/08 08:39:38;;;;;;;10.32;6.00;;;;;;;22.84;20.77;97310.91;5098731;28;20035;-90
2021/03/08 08:42:24;;;;;;;14.70;6.78;;;;;;;22.48;22.79;97305.03;5114289;28;20490;-91
2021/03/08 08:44:51;;;;;;;19.48;11.52;;;;;;;22.48;21.58;97303.16;5118123;28;20023;-90
2021/03/08 08:47:30;;;;;;;13.73;7.85;;;;;;;23.56;21.94;97315.97;5103449;28;20059;-91
2021/03/08 08:50:08;;;;;;;12.07;6.43;;;;;;;24.20;19.31;97294.63;5103456;28;20022;-91
2021/03/08 08:52:51;;;;;;;18.20;7.97;;;;;;;23.89;19.66;97285.66;5102998;28;20024;-92
2021/03/08 08:55:40;;;;;;;16.13;7.97;;;;;;;23.25;20.82;97300.63;5104403;28;20049;-89
2021/03/08 08:58:26;;;;;;;37.08;21.65;;;;;;;23.79;19.65;97291.38;5121231;28;20441;-87
2021/03/08 09:04:10;;;;;;;53.17;32.70;;;;;;;22.79;21.83;97280.59;5092011;28;20031;-87
2021/03/08 09:06:50;;;;;;;16.08;8.75;;;;;;;23.60;19.67;97268.13;5096352;28;20028;-89
2021/03/08 09:09:33;;;;;;;11.60;6.18;;;;;;;22.45;20.42;97267.22;5115726;28;20031;-88
2021/03/08 09:12:06;;;;;;;13.38;6.47;;;;;;;23.57;19.69;97262.19;5131278;27;20478;-88
2021/03/08 09:14:53;;;;;;;36.70;23.35;;;;;;;24.33;18.81;97261.19;5120511;28;20027;-89
2021/03/08 09:17:30;;;;;;;26.65;12.45;;;;;;;24.41;20.08;97261.06;5135997;28;20023;-90
2021/03/08 09:19:56;;;;;;;12.70;6.85;;;;;;;24.01;17.78;97251.38;5141678;28;20023;-90
2021/03/08 09:22:28;;;;;;;9.80;5.53;;;;;;;24.67;17.74;97258.72;5140673;28;20126;-90
2021/03/08 09:24:56;;;;;;;10.77;5.80;;;;;;;24.51;17.77;97251.56;5141571;28;20050;-90
2021/03/08 09:27:22;;;;;;;22.40;6.13;;;;;;;24.38;18.18;97242.31;5141619;28;20046;-90
2021/03/08 09:30:00;;;;;;;36.03;7.00;;;;;;;24.49;17.67;97233.63;5125087;28;20019;-91
2021/03/08 09:32:25;;;;;;;10.48;6.72;;;;;;;24.89;17.29;97238.59;5123247;28;20019;-90
2021/03/08 09:34:51;;;;;;;9.35;5.72;;;;;;;25.38;17.81;97246.13;5122076;28;20056;-92
2021/03/08 09:37:17;;;;;;;10.95;6.22;;;;;;;24.86;16.66;97236.25;5122806;28;20047;-91
2021/03/08 09:39:50;;;;;;;12.15;6.95;;;;;;;25.34;16.70;97231.97;5122729;27;20077;-90
2021/03/08 09:42:16;;;;;;;12.20;6.55;;;;;;;25.10;16.96;97224.13;5126828;27;20055;-89
2021/03/08 09:44:44;;;;;;;14.00;6.45;;;;;;;24.67;16.82;97236.84;5127550;27;20029;-89
2021/03/08 09:47:10;;;;;;;32.40;6.10;;;;;;;23.77;17.81;97216.97;5126660;27;20119;-90
2021/03/08 09:49:54;;;;;;;8.20;5.38;;;;;;;23.60;17.08;97221.72;5144062;27;20015;-90
2021/03/08 09:52:36;;;;;;;12.68;6.75;;;;;;;23.42;18.46;97234.84;5124344;27;20422;-90
2021/03/08 09:55:10;;;;;;;10.45;6.10;;;;;;;22.34;18.13;97232.16;5122637;27;20023;-90
2021/03/08 10:00:51;;;;;;;11.25;6.78;;;;;;;23.37;17.68;97231.78;5062819;28;20080;-86
2021/03/08 10:03:16;;;;;;;13.85;5.90;;;;;;;24.59;17.71;97225.97;5025332;28;20044;-90
2021/03/08 10:05:47;;;;;;;12.85;7.70;;;;;;;24.94;16.51;97221.63;5024612;28;20036;-87
2021/03/08 10:08:15;;;;;;;17.23;11.65;;;;;;;24.80;17.28;97217.81;5026169;28;20024;-91
2021/03/08 10:10:49;;;;;;;50.40;7.85;;;;;;;25.10;16.18;97215.91;5031405;28;20039;-92
2021/03/08 10:13:14;;;;;;;10.65;5.75;;;;;;;25.22;15.28;97203.41;5030558;28;20035;-89
2021/03/08 10:15:51;;;;;;;16.88;10.45;;;;;;;24.99;16.00;97202.72;5028374;28;20191;-89
2021/03/08 10:18:19;;;;;;;29.52;17.10;;;;;;;25.12;16.08;97211.09;5031822;28;20029;-90
2021/03/08 10:20:47;;;;;;;15.75;7.93;;;;;;;26.18;15.18;97217.34;5031429;28;20033;-88
2021/03/08 10:23:19;;;;;;;25.30;11.77;;;;;;;26.06;15.62;97201.63;5047348;28;20036;-91
2021/03/08 10:25:44;;;;;;;12.40;8.48;;;;;;;26.77;14.89;97203.97;5028526;28;20039;-87
2021/03/08 10:28:10;;;;;;;8.18;4.95;;;;;;;26.76;14.03;97195.94;5045894;28;20064;-87
2021/03/08 10:30:36;;;;;;;11.05;6.95;;;;;;;26.83;14.16;97199.59;5028590;28;20020;-88
2021/03/08 10:33:13;;;;;;;9.40;6.40;;;;;;;26.95;14.56;97183.38;5038871;28;20452;-87
2021/03/08 10:35:46;;;;;;;17.70;6.35;;;;;;;26.83;14.27;97181.22;5021430;28;20025;-81
2021/03/08 10:38:13;;;;;;;9.63;6.07;;;;;;;26.56;15.19;97178.53;5036061;28;20029;-82
2021/03/08 10:40:40;;;;;;;10.77;5.25;;;;;;;26.47;14.14;97172.38;5053564;28;20436;-82
2021/03/08 10:43:06;;;;;;;10.80;6.70;;;;;;;26.29;14.75;97178.41;5036634;28;20033;-82
2021/03/08 10:45:32;;;;;;;10.05;5.72;;;;;;;26.84;14.15;97173.84;5020571;28;20024;-81
2021/03/08 10:48:04;;;;;;;17.77;6.30;;;;;;;26.67;14.31;97173.31;5037573;28;20028;-82
2021/03/08 10:50:59;;;;;;;10.20;5.68;;;;;;;28.13;13.33;97167.03;5037107;28;20082;-83
2021/03/08 10:53:25;;;;;;;8.77;5.78;;;;;;;28.22;13.64;97162.97;5011668;28;20033;-81
2021/03/08 10:55:52;;;;;;;8.95;5.50;;;;;;;27.72;13.47;97161.72;5037250;28;20188;-82
2021/03/08 10:58:32;;;;;;;10.77;6.75;;;;;;;26.72;15.12;97161.72;5020676;28;20029;-82
2021/03/08 11:01:06;;;;;;;13.23;8.27;;;;;;;27.04;14.78;97151.94;5019906;28;20033;-82
2021/03/08 11:03:39;;;;;;;18.60;6.65;;;;;;;27.32;13.90;97158.94;5037202;28;20028;-81
2021/03/08 11:06:13;;;;;;;18.05;11.48;;;;;;;26.69;14.64;97153.91;5021848;28;20024;-80
2021/03/08 11:08:43;;;;;;;30.90;22.70;;;;;;;26.69;15.44;97148.41;5020239;28;20424;-82
2021/03/08 11:11:15;;;;;;;26.98;15.18;;;;;;;26.00;16.00;97148.44;5021540;28;20116;-81
2021/03/08 11:13:41;;;;;;;16.83;8.30;;;;;;;26.03;15.84;97148.03;5036375;28;20039;-82
2021/03/08 11:16:08;;;;;;;22.67;15.05;;;;;;;26.75;15.06;97158.56;5019363;28;20412;-82
2021/03/08 11:18:33;;;;;;;16.90;10.25;;;;;;;26.97;14.95;97140.06;5018781;28;20032;-83
2021/03/08 11:21:31;;;;;;;14.65;10.13;;;;;;;27.61;14.96;97146.75;5018540;28;20425;-82
2021/03/08 11:24:22;;;;;;;16.95;10.30;;;;;;;25.22;15.76;97122.13;5019442;28;20036;-81
2021/03/08 11:27:09;;;;;;;14.73;9.63;;;;;;;24.97;16.43;97129.03;5035593;28;20047;-82
2021/03/08 11:29:35;;;;;;;9.25;6.93;;;;;;;25.83;15.35;97120.50;5035289;28;20391;-82
2021/03/08 11:32:00;;;;;;;15.65;6.90;;;;;;;25.35;16.08;97116.72;5018802;28;20033;-82
2021/03/08 11:34:43;;;;;;;10.73;6.60;;;;;;;26.25;15.36;97126.91;5052918;28;20025;-82
2021/03/08 11:37:09;;;;;;;11.80;6.50;;;;;;;26.19;15.41;97112.09;5018366;28;20028;-81
2021/03/08 11:39:42;;;;;;;14.43;6.28;;;;;;;27.02;14.15;97105.44;5018111;28;20033;-83
2021/03/08 11:42:08;;;;;;;14.38;9.82;;;;;;;26.79;14.26;97077.50;5010933;28;20488;-83